sensor_id;sensor_type;location;lat;lon;timestamp;P1;durP1;ratioP1;P2;durP2;ratioP2
55527;SDS011;52818;43.308;21.916;2023-04-06T00:00:27;29.20;;;21.30;;
55527;SDS011;52818;43.308;21.916;2023-04-06T00:02:27;27.80;;;20.80;;
55527;SDS011;52818;43.308;21.916;2023-04-06T00:04:27;25.40;;;19.20;;
55527;SDS011;52818;43.308;21.916;2023-04-06T00:06:27;25.00;;;18.00;;
55527;SDS011;52818;43.308;21.916;2023-04-06T00:08:27;24.80;;;18.10;;
55527;SDS011;52818;43.308;21.916;2023-04-06T00:10:27;24.60;;;17.70;;
55527;SDS011;52818;43.308;21.916;2023-04-06T00:12:28;26.40;;;18.50;;
55527;SDS011;52818;43.308;21.916;2023-04-06T00:14:28;25.80;;;18.60;;
55527;SDS011;52818;43.308;21.916;2023-04-06T00:16:28;27.00;;;20.80;;
55527;SDS011;52818;43.308;21.916;2023-04-06T00:18:28;33.00;;;23.40;;
55527;SDS011;52818;43.308;21.916;2023-04-06T00:20:28;28.10;;;21.10;;
55527;SDS011;52818;43.308;21.916;2023-04-06T00:22:28;30.10;;;21.60;;
55527;SDS011;52818;43.308;21.916;2023-04-06T00:24:28;30.40;;;22.30;;
55527;SDS011;52818;43.308;21.916;2023-04-06T00:26:28;30.90;;;22.60;;
55527;SDS011;52818;43.308;21.916;2023-04-06T00:28:28;33.10;;;23.10;;
55527;SDS011;52818;43.308;21.916;2023-04-06T00:30:28;34.70;;;24.20;;
55527;SDS011;52818;43.308;21.916;2023-04-06T00:32:28;31.30;;;23.00;;
55527;SDS011;52818;43.308;21.916;2023-04-06T00:34:29;33.30;;;23.60;;
55527;SDS011;52818;43.308;21.916;2023-04-06T00:36:29;31.60;;;22.20;;
55527;SDS011;52818;43.308;21.916;2023-04-06T00:38:29;27.50;;;20.20;;
55527;SDS011;52818;43.308;21.916;2023-04-06T00:40:29;27.40;;;20.60;;
55527;SDS011;52818;43.308;21.916;2023-04-06T00:42:29;28.30;;;20.40;;
55527;SDS011;52818;43.308;21.916;2023-04-06T00:44:29;30.10;;;21.10;;
55527;SDS011;52818;43.308;21.916;2023-04-06T00:46:29;28.80;;;21.60;;
55527;SDS011;52818;43.308;21.916;2023-04-06T00:48:29;28.40;;;21.20;;
55527;SDS011;52818;43.308;21.916;2023-04-06T00:50:29;30.70;;;22.20;;
55527;SDS011;52818;43.308;21.916;2023-04-06T00:52:29;42.60;;;28.70;;
55527;SDS011;52818;43.308;21.916;2023-04-06T00:54:30;39.80;;;27.80;;
55527;SDS011;52818;43.308;21.916;2023-04-06T00:56:30;41.60;;;28.40;;
55527;SDS011;52818;43.308;21.916;2023-04-06T00:58:30;36.10;;;24.80;;
55527;SDS011;52818;43.308;21.916;2023-04-06T01:00:30;27.20;;;20.60;;
55527;SDS011;52818;43.308;21.916;2023-04-06T01:02:30;27.50;;;20.80;;
55527;SDS011;52818;43.308;21.916;2023-04-06T01:04:30;25.20;;;20.40;;
55527;SDS011;52818;43.308;21.916;2023-04-06T01:06:30;25.90;;;19.80;;
55527;SDS011;52818;43.308;21.916;2023-04-06T01:08:30;;;;19.50;;
55527;SDS011;52818;43.308;21.916;2023-04-06T01:10:30;24.20;;;18.20;;
55527;SDS011;52818;43.308;21.916;2023-04-06T01:12:30;27.10;;;20.70;;
55527;SDS011;52818;43.308;21.916;2023-04-06T01:14:30;25.10;;;19.30;;
55527;SDS011;52818;43.308;21.916;2023-04-06T01:16:30;23.70;;;19.00;;
55527;SDS011;52818;43.308;21.916;2023-04-06T01:18:31;24.80;;;20.40;;
55527;SDS011;52818;43.308;21.916;2023-04-06T01:20:31;28.10;;;20.20;;
55527;SDS011;52818;43.308;21.916;2023-04-06T01:22:31;26.20;;;20.10;;
55527;SDS011;52818;43.308;21.916;2023-04-06T01:24:31;28.40;;;20.70;;
55527;SDS011;52818;43.308;21.916;2023-04-06T01:26:31;25.60;;;19.10;;
55527;SDS011;52818;43.308;21.916;2023-04-06T01:28:31;26.10;;;20.00;;
55527;SDS011;52818;43.308;21.916;2023-04-06T01:30:31;32.40;;;22.00;;
55527;SDS011;52818;43.308;21.916;2023-04-06T01:32:31;36.80;;;23.20;;
55527;SDS011;52818;43.308;21.916;2023-04-06T01:34:31;34.30;;;23.30;;
55527;SDS011;52818;43.308;21.916;2023-04-06T01:36:31;33.20;;;21.90;;
55527;SDS011;52818;43.308;21.916;2023-04-06T01:38:32;31.60;;;21.60;;
55527;SDS011;52818;43.308;21.916;2023-04-06T01:40:32;;;;20.60;;
55527;SDS011;52818;43.308;21.916;2023-04-06T01:42:32;29.00;;;20.80;;
55527;SDS011;52818;43.308;21.916;2023-04-06T01:44:32;26.80;;;19.90;;
55527;SDS011;52818;43.308;21.916;2023-04-06T01:46:32;29.20;;;20.80;;
55527;SDS011;52818;43.308;21.916;2023-04-06T01:48:32;29.40;;;21.00;;
55527;SDS011;52818;43.308;21.916;2023-04-06T01:50:32;28.10;;;21.70;;
55527;SDS011;52818;43.308;21.916;2023-04-06T01:52:32;28.20;;;21.00;;
55527;SDS011;52818;43.308;21.916;2023-04-06T01:54:32;27.10;;;20.60;;
55527;SDS011;52818;43.308;21.916;2023-04-06T01:56:32;29.10;;;21.50;;
55527;SDS011;52818;43.308;21.916;2023-04-06T01:58:32;28.80;;;20.70;;
55527;SDS011;52818;43.308;21.916;2023-04-06T02:00:33;26.90;;;21.80;;
55527;SDS011;52818;43.308;21.916;2023-04-06T02:02:33;28.90;;;21.00;;
55527;SDS011;52818;43.308;21.916;2023-04-06T02:04:33;28.80;;;;;
55527;SDS011;52818;43.308;21.916;2023-04-06T02:06:33;;;;20.80;;
55527;SDS011;52818;43.308;21.916;2023-04-06T02:08:33;30.10;;;21.80;;
55527;SDS011;52818;43.308;21.916;2023-04-06T02:10:33;29.00;;;21.50;;
55527;SDS011;52818;43.308;21.916;2023-04-06T02:12:33;27.50;;;20.30;;
55527;SDS011;52818;43.308;21.916;2023-04-06T02:14:33;28.30;;;21.10;;
55527;SDS011;52818;43.308;21.916;2023-04-06T02:16:33;27.60;;;20.60;;
55527;SDS011;52818;43.308;21.916;2023-04-06T02:18:33;26.00;;;20.00;;
55527;SDS011;52818;43.308;21.916;2023-04-06T02:20:33;27.90;;;20.70;;
55527;SDS011;52818;43.308;21.916;2023-04-06T02:22:34;24.60;;;19.30;;
55527;SDS011;52818;43.308;21.916;2023-04-06T02:24:34;28.10;;;20.20;;
55527;SDS011;52818;43.308;21.916;2023-04-06T02:26:34;25.00;;;19.40;;
55527;SDS011;52818;43.308;21.916;2023-04-06T02:28:34;25.20;;;19.50;;
55527;SDS011;52818;43.308;21.916;2023-04-06T02:30:34;27.60;;;;;
55527;SDS011;52818;43.308;21.916;2023-04-06T02:32:34;25.90;;;;;
55527;SDS011;52818;43.308;21.916;2023-04-06T02:34:34;27.20;;;20.60;;
55527;SDS011;52818;43.308;21.916;2023-04-06T02:36:34;26.80;;;20.20;;
55527;SDS011;52818;43.308;21.916;2023-04-06T02:38:34;26.70;;;20.90;;
55527;SDS011;52818;43.308;21.916;2023-04-06T02:40:34;28.00;;;19.80;;
55527;SDS011;52818;43.308;21.916;2023-04-06T02:42:35;26.30;;;21.30;;
55527;SDS011;52818;43.308;21.916;2023-04-06T02:44:34;29.50;;;22.40;;
55527;SDS011;52818;43.308;21.916;2023-04-06T02:46:35;28.90;;;21.80;;
55527;SDS011;52818;43.308;21.916;2023-04-06T02:48:35;28.70;;;21.40;;
55527;SDS011;52818;43.308;21.916;2023-04-06T02:50:35;26.90;;;;;
55527;SDS011;52818;43.308;21.916;2023-04-06T02:52:35;26.20;;;20.80;;
55527;SDS011;52818;43.308;21.916;2023-04-06T02:54:35;28.80;;;20.10;;
55527;SDS011;52818;43.308;21.916;2023-04-06T02:56:35;27.20;;;19.30;;
55527;SDS011;52818;43.308;21.916;2023-04-06T02:58:35;24.90;;;;;
55527;SDS011;52818;43.308;21.916;2023-04-06T03:00:36;27.00;;;19.50;;
55527;SDS011;52818;43.308;21.916;2023-04-06T03:02:35;25.90;;;19.70;;
55527;SDS011;52818;43.308;21.916;2023-04-06T03:04:35;26.10;;;19.50;;
55527;SDS011;52818;43.308;21.916;2023-04-06T03:06:35;24.10;;;;;
55527;SDS011;52818;43.308;21.916;2023-04-06T03:08:36;25.50;;;;;
55527;SDS011;52818;43.308;21.916;2023-04-06T03:10:36;28.60;;;20.10;;
55527;SDS011;52818;43.308;21.916;2023-04-06T03:12:36;24.50;;;19.50;;
55527;SDS011;52818;43.308;21.916;2023-04-06T03:14:36;25.30;;;19.80;;
55527;SDS011;52818;43.308;21.916;2023-04-06T03:16:36;25.10;;;19.30;;
55527;SDS011;52818;43.308;21.916;2023-04-06T03:18:36;24.60;;;19.20;;
55527;SDS011;52818;43.308;21.916;2023-04-06T03:20:36;25.70;;;19.50;;
55527;SDS011;52818;43.308;21.916;2023-04-06T03:22:36;23.10;;;18.80;;
55527;SDS011;52818;43.308;21.916;2023-04-06T03:24:36;28.00;;;19.80;;
55527;SDS011;52818;43.308;21.916;2023-04-06T03:26:36;28.80;;;21.20;;
55527;SDS011;52818;43.308;21.916;2023-04-06T03:28:36;31.30;;;22.30;;
55527;SDS011;52818;43.308;21.916;2023-04-06T03:30:37;31.60;;;22.50;;
55527;SDS011;52818;43.308;21.916;2023-04-06T03:32:37;31.20;;;21.80;;
55527;SDS011;52818;43.308;21.916;2023-04-06T03:34:37;32.90;;;23.20;;
55527;SDS011;52818;43.308;21.916;2023-04-06T03:36:37;31.60;;;23.40;;
55527;SDS011;52818;43.308;21.916;2023-04-06T03:38:37;34.00;;;23.50;;
55527;SDS011;52818;43.308;21.916;2023-04-06T03:40:37;31.30;;;23.00;;
55527;SDS011;52818;43.308;21.916;2023-04-06T03:42:37;32.00;;;22.90;;
55527;SDS011;52818;43.308;21.916;2023-04-06T03:44:37;28.80;;;20.90;;
55527;SDS011;52818;43.308;21.916;2023-04-06T03:46:37;28.10;;;20.80;;
55527;SDS011;52818;43.308;21.916;2023-04-06T03:48:37;29.10;;;21.40;;
55527;SDS011;52818;43.308;21.916;2023-04-06T03:50:37;30.00;;;21.00;;
55527;SDS011;52818;43.308;21.916;2023-04-06T03:52:38;27.00;;;20.70;;
55527;SDS011;52818;43.308;21.916;2023-04-06T03:54:38;26.40;;;19.30;;
55527;SDS011;52818;43.308;21.916;2023-04-06T03:56:38;29.90;;;21.20;;
55527;SDS011;52818;43.308;21.916;2023-04-06T03:58:38;29.60;;;21.00;;
55527;SDS011;52818;43.308;21.916;2023-04-06T04:00:38;29.50;;;22.10;;
55527;SDS011;52818;43.308;21.916;2023-04-06T04:02:38;29.00;;;20.70;;
55527;SDS011;52818;43.308;21.916;2023-04-06T04:04:38;28.00;;;20.60;;
55527;SDS011;52818;43.308;21.916;2023-04-06T04:06:38;29.20;;;20.40;;
55527;SDS011;52818;43.308;21.916;2023-04-06T04:08:38;26.40;;;19.80;;
55527;SDS011;52818;43.308;21.916;2023-04-06T04:10:38;27.30;;;19.70;;
55527;SDS011;52818;43.308;21.916;2023-04-06T04:12:38;24.60;;;19.10;;
55527;SDS011;52818;43.308;21.916;2023-04-06T04:14:39;26.50;;;20.20;;
55527;SDS011;52818;43.308;21.916;2023-04-06T04:16:39;27.10;;;20.10;;
55527;SDS011;52818;43.308;21.916;2023-04-06T04:18:39;28.30;;;21.00;;
55527;SDS011;52818;43.308;21.916;2023-04-06T04:20:39;25.00;;;19.50;;
55527;SDS011;52818;43.308;21.916;2023-04-06T04:22:40;26.50;;;19.60;;
55527;SDS011;52818;43.308;21.916;2023-04-06T04:24:39;25.60;;;20.00;;
55527;SDS011;52818;43.308;21.916;2023-04-06T04:26:39;27.20;;;20.90;;
55527;SDS011;52818;43.308;21.916;2023-04-06T04:28:39;30.40;;;23.00;;
55527;SDS011;52818;43.308;21.916;2023-04-06T04:30:39;30.80;;;22.50;;
55527;SDS011;52818;43.308;21.916;2023-04-06T04:32:39;49.30;;;32.30;;
55527;SDS011;52818;43.308;21.916;2023-04-06T04:34:40;48.20;;;31.60;;
55527;SDS011;52818;43.308;21.916;2023-04-06T04:36:40;44.60;;;30.60;;
55527;SDS011;52818;43.308;21.916;2023-04-06T04:38:40;45.30;;;32.30;;
55527;SDS011;52818;43.308;21.916;2023-04-06T04:40:40;53.90;;;36.40;;
55527;SDS011;52818;43.308;21.916;2023-04-06T04:42:40;45.20;;;32.20;;
55527;SDS011;52818;43.308;21.916;2023-04-06T04:44:40;33.70;;;24.30;;
55527;SDS011;52818;43.308;21.916;2023-04-06T04:46:40;30.90;;;23.90;;
55527;SDS011;52818;43.308;21.916;2023-04-06T04:48:40;34.70;;;25.10;;
55527;SDS011;52818;43.308;21.916;2023-04-06T04:50:40;29.10;;;23.50;;
55527;SDS011;52818;43.308;21.916;2023-04-06T04:52:40;30.00;;;22.10;;
55527;SDS011;52818;43.308;21.916;2023-04-06T04:54:40;31.20;;;23.20;;
55527;SDS011;52818;43.308;21.916;2023-04-06T04:56:41;28.50;;;22.40;;
55527;SDS011;52818;43.308;21.916;2023-04-06T04:58:41;30.50;;;22.30;;
55527;SDS011;52818;43.308;21.916;2023-04-06T05:00:41;32.30;;;24.80;;
55527;SDS011;52818;43.308;21.916;2023-04-06T05:02:41;29.40;;;22.50;;
55527;SDS011;52818;43.308;21.916;2023-04-06T05:04:41;32.10;;;25.20;;
55527;SDS011;52818;43.308;21.916;2023-04-06T05:06:41;33.90;;;25.30;;
55527;SDS011;52818;43.308;21.916;2023-04-06T05:08:41;35.10;;;25.70;;
55527;SDS011;52818;43.308;21.916;2023-04-06T05:10:41;40.60;;;29.00;;
55527;SDS011;52818;43.308;21.916;2023-04-06T05:12:41;42.40;;;30.20;;
55527;SDS011;52818;43.308;21.916;2023-04-06T05:14:41;40.60;;;29.40;;
55527;SDS011;52818;43.308;21.916;2023-04-06T05:16:41;37.50;;;27.60;;
55527;SDS011;52818;43.308;21.916;2023-04-06T05:18:41;36.30;;;27.20;;
55527;SDS011;52818;43.308;21.916;2023-04-06T05:20:42;37.40;;;27.30;;
55527;SDS011;52818;43.308;21.916;2023-04-06T05:22:42;35.80;;;26.50;;
55527;SDS011;52818;43.308;21.916;2023-04-06T05:24:42;36.60;;;27.20;;
55527;SDS011;52818;43.308;21.916;2023-04-06T05:26:42;38.90;;;28.80;;
55527;SDS011;52818;43.308;21.916;2023-04-06T05:28:42;48.20;;;34.50;;
55527;SDS011;52818;43.308;21.916;2023-04-06T05:30:42;46.20;;;34.20;;
55527;SDS011;52818;43.308;21.916;2023-04-06T05:32:42;39.20;;;29.20;;
55527;SDS011;52818;43.308;21.916;2023-04-06T05:34:42;35.60;;;27.40;;
55527;SDS011;52818;43.308;21.916;2023-04-06T05:36:42;36.90;;;28.80;;
55527;SDS011;52818;43.308;21.916;2023-04-06T05:38:43;37.60;;;29.10;;
55527;SDS011;52818;43.308;21.916;2023-04-06T05:40:43;39.70;;;29.30;;
55527;SDS011;52818;43.308;21.916;2023-04-06T05:42:43;35.20;;;27.00;;
55527;SDS011;52818;43.308;21.916;2023-04-06T05:44:43;35.40;;;27.30;;
55527;SDS011;52818;43.308;21.916;2023-04-06T05:46:43;46.90;;;30.80;;
55527;SDS011;52818;43.308;21.916;2023-04-06T05:48:43;44.00;;;30.70;;
55527;SDS011;52818;43.308;21.916;2023-04-06T05:50:47;41.30;;;28.70;;
55527;SDS011;52818;43.308;21.916;2023-04-06T05:52:43;36.30;;;26.70;;
55527;SDS011;52818;43.308;21.916;2023-04-06T05:54:43;39.10;;;27.30;;
55527;SDS011;52818;43.308;21.916;2023-04-06T05:56:43;35.70;;;26.40;;
55527;SDS011;52818;43.308;21.916;2023-04-06T05:58:43;34.00;;;26.60;;
55527;SDS011;52818;43.308;21.916;2023-04-06T06:00:43;32.90;;;25.00;;
55527;SDS011;52818;43.308;21.916;2023-04-06T06:02:44;33.10;;;25.20;;
55527;SDS011;52818;43.308;21.916;2023-04-06T06:04:44;31.30;;;24.10;;
55527;SDS011;52818;43.308;21.916;2023-04-06T06:06:44;32.20;;;24.30;;
55527;SDS011;52818;43.308;21.916;2023-04-06T06:08:44;37.40;;;25.50;;
55527;SDS011;52818;43.308;21.916;2023-04-06T06:10:44;28.20;;;19.20;;
55527;SDS011;52818;43.308;21.916;2023-04-06T06:12:44;28.90;;;19.80;;
55527;SDS011;52818;43.308;21.916;2023-04-06T06:14:44;38.80;;;25.40;;
55527;SDS011;52818;43.308;21.916;2023-04-06T06:16:44;38.60;;;25.30;;
55527;SDS011;52818;43.308;21.916;2023-04-06T06:18:44;26.80;;;19.30;;
55527;SDS011;52818;43.308;21.916;2023-04-06T06:20:44;29.40;;;21.60;;
55527;SDS011;52818;43.308;21.916;2023-04-06T06:22:44;29.80;;;21.40;;
55527;SDS011;52818;43.308;21.916;2023-04-06T06:24:44;30.10;;;21.20;;
55527;SDS011;52818;43.308;21.916;2023-04-06T06:26:45;31.90;;;21.60;;
55527;SDS011;52818;43.308;21.916;2023-04-06T06:28:45;41.00;;;27.90;;
55527;SDS011;52818;43.308;21.916;2023-04-06T06:30:45;32.60;;;23.30;;
55527;SDS011;52818;43.308;21.916;2023-04-06T06:32:45;32.20;;;23.00;;
55527;SDS011;52818;43.308;21.916;2023-04-06T06:34:45;27.90;;;20.70;;
55527;SDS011;52818;43.308;21.916;2023-04-06T06:36:45;31.40;;;21.50;;
55527;SDS011;52818;43.308;21.916;2023-04-06T06:38:45;29.70;;;22.00;;
55527;SDS011;52818;43.308;21.916;2023-04-06T06:40:45;28.70;;;20.90;;
55527;SDS011;52818;43.308;21.916;2023-04-06T06:42:45;26.30;;;20.30;;
55527;SDS011;52818;43.308;21.916;2023-04-06T06:44:45;28.30;;;19.70;;
55527;SDS011;52818;43.308;21.916;2023-04-06T06:46:46;;;;19.20;;
55527;SDS011;52818;43.308;21.916;2023-04-06T06:48:46;27.00;;;19.00;;
55527;SDS011;52818;43.308;21.916;2023-04-06T06:50:47;23.70;;;17.90;;
55527;SDS011;52818;43.308;21.916;2023-04-06T06:52:46;23.30;;;18.10;;
55527;SDS011;52818;43.308;21.916;2023-04-06T06:54:46;22.60;;;18.50;;
55527;SDS011;52818;43.308;21.916;2023-04-06T06:56:46;25.70;;;18.30;;
55527;SDS011;52818;43.308;21.916;2023-04-06T06:58:46;35.30;;;24.50;;
55527;SDS011;52818;43.308;21.916;2023-04-06T07:00:46;35.00;;;25.00;;
55527;SDS011;52818;43.308;21.916;2023-04-06T07:02:46;50.20;;;32.60;;
55527;SDS011;52818;43.308;21.916;2023-04-06T07:04:47;47.30;;;32.40;;
55527;SDS011;52818;43.308;21.916;2023-04-06T07:06:46;55.90;;;37.90;;
55527;SDS011;52818;43.308;21.916;2023-04-06T07:08:47;54.10;;;38.20;;
55527;SDS011;52818;43.308;21.916;2023-04-06T07:10:47;46.70;;;33.70;;
55527;SDS011;52818;43.308;21.916;2023-04-06T07:12:47;39.40;;;27.50;;
55527;SDS011;52818;43.308;21.916;2023-04-06T07:14:47;38.80;;;28.90;;
55527;SDS011;52818;43.308;21.916;2023-04-06T07:16:47;33.90;;;25.60;;
55527;SDS011;52818;43.308;21.916;2023-04-06T07:18:47;31.90;;;24.10;;
55527;SDS011;52818;43.308;21.916;2023-04-06T07:20:47;32.20;;;23.40;;
55527;SDS011;52818;43.308;21.916;2023-04-06T07:22:47;30.30;;;22.00;;
55527;SDS011;52818;43.308;21.916;2023-04-06T07:24:47;28.90;;;20.90;;
55527;SDS011;52818;43.308;21.916;2023-04-06T07:26:47;28.20;;;20.60;;
55527;SDS011;52818;43.308;21.916;2023-04-06T07:28:47;28.90;;;20.50;;
55527;SDS011;52818;43.308;21.916;2023-04-06T07:30:48;32.50;;;23.00;;
55527;SDS011;52818;43.308;21.916;2023-04-06T07:37:18;29.80;;;23.30;;
55527;SDS011;52818;43.308;21.916;2023-04-06T07:39:18;29.50;;;23.50;;
55527;SDS011;52818;43.308;21.916;2023-04-06T07:41:18;32.00;;;24.00;;
55527;SDS011;52818;43.308;21.916;2023-04-06T07:43:18;29.60;;;21.70;;
55527;SDS011;52818;43.308;21.916;2023-04-06T07:45:18;28.10;;;20.60;;
55527;SDS011;52818;43.308;21.916;2023-04-06T07:47:19;25.00;;;18.50;;
55527;SDS011;52818;43.308;21.916;2023-04-06T07:49:19;25.70;;;17.40;;
55527;SDS011;52818;43.308;21.916;2023-04-06T07:51:19;25.30;;;19.70;;
55527;SDS011;52818;43.308;21.916;2023-04-06T07:53:19;31.80;;;23.20;;
55527;SDS011;52818;43.308;21.916;2023-04-06T07:55:19;37.00;;;26.50;;
55527;SDS011;52818;43.308;21.916;2023-04-06T07:57:19;23.70;;;17.60;;
55527;SDS011;52818;43.308;21.916;2023-04-06T07:59:19;24.40;;;;;
55527;SDS011;52818;43.308;21.916;2023-04-06T08:01:19;27.00;;;19.70;;
55527;SDS011;52818;43.308;21.916;2023-04-06T08:03:20;30.20;;;21.90;;
55527;SDS011;52818;43.308;21.916;2023-04-06T08:05:19;31.20;;;22.20;;
55527;SDS011;52818;43.308;21.916;2023-04-06T08:07:20;30.80;;;23.20;;
55527;SDS011;52818;43.308;21.916;2023-04-06T08:09:20;26.10;;;20.50;;
55527;SDS011;52818;43.308;21.916;2023-04-06T08:11:20;26.60;;;19.90;;
55527;SDS011;52818;43.308;21.916;2023-04-06T08:13:20;23.20;;;18.90;;
55527;SDS011;52818;43.308;21.916;2023-04-06T08:15:20;25.60;;;19.90;;
55527;SDS011;52818;43.308;21.916;2023-04-06T08:17:20;33.50;;;26.10;;
55527;SDS011;52818;43.308;21.916;2023-04-06T08:19:20;35.00;;;26.90;;
55527;SDS011;52818;43.308;21.916;2023-04-06T08:21:21;35.10;;;28.10;;
55527;SDS011;52818;43.308;21.916;2023-04-06T08:23:20;26.30;;;19.90;;
55527;SDS011;52818;43.308;21.916;2023-04-06T08:25:21;24.20;;;18.30;;
55527;SDS011;52818;43.308;21.916;2023-04-06T08:27:21;22.60;;;17.50;;
55527;SDS011;52818;43.308;21.916;2023-04-06T08:29:21;25.50;;;18.70;;
55527;SDS011;52818;43.308;21.916;2023-04-06T08:31:21;27.90;;;19.00;;
55527;SDS011;52818;43.308;21.916;2023-04-06T08:33:21;22.50;;;16.70;;
55527;SDS011;52818;43.308;21.916;2023-04-06T08:35:21;28.70;;;19.50;;
55527;SDS011;52818;43.308;21.916;2023-04-06T08:37:21;27.30;;;20.00;;
55527;SDS011;52818;43.308;21.916;2023-04-06T08:39:21;29.90;;;22.70;;
55527;SDS011;52818;43.308;21.916;2023-04-06T08:41:21;34.50;;;24.90;;
55527;SDS011;52818;43.308;21.916;2023-04-06T08:43:22;52.40;;;36.40;;
55527;SDS011;52818;43.308;21.916;2023-04-06T08:45:22;38.40;;;27.90;;
55527;SDS011;52818;43.308;21.916;2023-04-06T08:47:22;33.20;;;22.90;;
55527;SDS011;52818;43.308;21.916;2023-04-06T08:49:22;32.70;;;20.10;;
55527;SDS011;52818;43.308;21.916;2023-04-06T08:51:22;23.70;;;15.80;;
55527;SDS011;52818;43.308;21.916;2023-04-06T08:53:22;24.30;;;14.50;;
55527;SDS011;52818;43.308;21.916;2023-04-06T08:55:22;24.50;;;16.50;;
55527;SDS011;52818;43.308;21.916;2023-04-06T08:57:22;19.30;;;14.30;;
55527;SDS011;52818;43.308;21.916;2023-04-06T08:59:23;17.00;;;12.20;;
55527;SDS011;52818;43.308;21.916;2023-04-06T09:01:23;17.30;;;12.10;;
55527;SDS011;52818;43.308;21.916;2023-04-06T09:03:23;18.10;;;13.10;;
55527;SDS011;52818;43.308;21.916;2023-04-06T09:05:23;27.10;;;17.20;;
55527;SDS011;52818;43.308;21.916;2023-04-06T09:07:23;25.30;;;;;
55527;SDS011;52818;43.308;21.916;2023-04-06T09:09:23;18.40;;;14.20;;
55527;SDS011;52818;43.308;21.916;2023-04-06T09:11:23;18.70;;;13.50;;
55527;SDS011;52818;43.308;21.916;2023-04-06T09:13:23;19.70;;;12.80;;
55527;SDS011;52818;43.308;21.916;2023-04-06T09:15:23;19.80;;;14.00;;
55527;SDS011;52818;43.308;21.916;2023-04-06T09:17:24;20.60;;;13.30;;
55527;SDS011;52818;43.308;21.916;2023-04-06T09:19:24;20.40;;;13.20;;
55527;SDS011;52818;43.308;21.916;2023-04-06T09:21:24;19.20;;;12.00;;
55527;SDS011;52818;43.308;21.916;2023-04-06T09:23:24;16.70;;;11.70;;
55527;SDS011;52818;43.308;21.916;2023-04-06T09:25:24;18.40;;;12.80;;
55527;SDS011;52818;43.308;21.916;2023-04-06T09:27:31;17.30;;;12.30;;
55527;SDS011;52818;43.308;21.916;2023-04-06T09:29:24;17.50;;;13.00;;
55527;SDS011;52818;43.308;21.916;2023-04-06T09:31:25;17.20;;;12.40;;
55527;SDS011;52818;43.308;21.916;2023-04-06T09:33:24;14.70;;;11.40;;
55527;SDS011;52818;43.308;21.916;2023-04-06T09:35:24;16.00;;;11.60;;
55527;SDS011;52818;43.308;21.916;2023-04-06T09:37:27;17.10;;;11.50;;
55527;SDS011;52818;43.308;21.916;2023-04-06T09:39:25;15.70;;;13.00;;
55527;SDS011;52818;43.308;21.916;2023-04-06T09:41:25;17.80;;;14.00;;
55527;SDS011;52818;43.308;21.916;2023-04-06T09:43:25;31.70;;;20.90;;
55527;SDS011;52818;43.308;21.916;2023-04-06T09:45:25;19.50;;;13.60;;
55527;SDS011;52818;43.308;21.916;2023-04-06T09:47:25;16.10;;;11.80;;
55527;SDS011;52818;43.308;21.916;2023-04-06T09:49:26;17.10;;;12.50;;
55527;SDS011;52818;43.308;21.916;2023-04-06T09:51:25;18.70;;;13.20;;
55527;SDS011;52818;43.308;21.916;2023-04-06T09:53:26;20.30;;;12.20;;
55527;SDS011;52818;43.308;21.916;2023-04-06T09:55:27;13.90;;;10.30;;
55527;SDS011;52818;43.308;21.916;2023-04-06T09:57:27;13.70;;;10.60;;
55527;SDS011;52818;43.308;21.916;2023-04-06T09:59:28;15.40;;;10.50;;
55527;SDS011;52818;43.308;21.916;2023-04-06T10:01:26;16.40;;;11.80;;
55527;SDS011;52818;43.308;21.916;2023-04-06T10:03:27;19.70;;;12.80;;
55527;SDS011;52818;43.308;21.916;2023-04-06T10:05:28;21.70;;;15.10;;
55527;SDS011;52818;43.308;21.916;2023-04-06T10:07:26;20.00;;;12.70;;
55527;SDS011;52818;43.308;21.916;2023-04-06T10:09:28;12.30;;;9.20;;
55527;SDS011;52818;43.308;21.916;2023-04-06T10:11:26;23.00;;;15.90;;
55527;SDS011;52818;43.308;21.916;2023-04-06T10:13:26;20.80;;;13.10;;
55527;SDS011;52818;43.308;21.916;2023-04-06T10:15:27;20.50;;;12.10;;
55527;SDS011;52818;43.308;21.916;2023-04-06T10:17:27;17.10;;;;;
55527;SDS011;52818;43.308;21.916;2023-04-06T10:19:28;15.10;;;12.20;;
55527;SDS011;52818;43.308;21.916;2023-04-06T10:21:27;19.50;;;13.80;;
55527;SDS011;52818;43.308;21.916;2023-04-06T10:23:29;21.00;;;14.70;;
55527;SDS011;52818;43.308;21.916;2023-04-06T10:25:27;21.50;;;15.30;;
55527;SDS011;52818;43.308;21.916;2023-04-06T10:27:27;17.80;;;12.90;;
55527;SDS011;52818;43.308;21.916;2023-04-06T10:29:27;20.00;;;13.10;;
55527;SDS011;52818;43.308;21.916;2023-04-06T10:31:28;14.40;;;10.50;;
55527;SDS011;52818;43.308;21.916;2023-04-06T10:33:28;14.20;;;10.00;;
55527;SDS011;52818;43.308;21.916;2023-04-06T10:35:36;16.00;;;11.50;;
55527;SDS011;52818;43.308;21.916;2023-04-06T10:37:28;14.10;;;10.70;;
55527;SDS011;52818;43.308;21.916;2023-04-06T10:39:28;18.20;;;13.90;;
55527;SDS011;52818;43.308;21.916;2023-04-06T10:41:32;13.20;;;10.20;;
55527;SDS011;52818;43.308;21.916;2023-04-06T10:43:32;15.90;;;12.60;;
55527;SDS011;52818;43.308;21.916;2023-04-06T10:45:30;17.70;;;14.20;;
55527;SDS011;52818;43.308;21.916;2023-04-06T10:47:28;17.40;;;14.00;;
55527;SDS011;52818;43.308;21.916;2023-04-06T10:49:28;17.90;;;12.80;;
55527;SDS011;52818;43.308;21.916;2023-04-06T10:51:28;;;;13.80;;
55527;SDS011;52818;43.308;21.916;2023-04-06T10:53:28;15.20;;;11.50;;
55527;SDS011;52818;43.308;21.916;2023-04-06T10:55:29;13.60;;;10.50;;
55527;SDS011;52818;43.308;21.916;2023-04-06T10:57:29;13.40;;;;;
55527;SDS011;52818;43.308;21.916;2023-04-06T10:59:29;14.00;;;11.30;;
55527;SDS011;52818;43.308;21.916;2023-04-06T11:01:29;15.30;;;11.40;;
55527;SDS011;52818;43.308;21.916;2023-04-06T11:03:29;15.70;;;11.10;;
55527;SDS011;52818;43.308;21.916;2023-04-06T11:05:29;17.10;;;13.60;;
55527;SDS011;52818;43.308;21.916;2023-04-06T11:07:29;13.70;;;10.80;;
55527;SDS011;52818;43.308;21.916;2023-04-06T11:09:30;28.70;;;16.90;;
55527;SDS011;52818;43.308;21.916;2023-04-06T11:11:29;45.40;;;27.40;;
55527;SDS011;52818;43.308;21.916;2023-04-06T11:13:36;23.00;;;16.40;;
55527;SDS011;52818;43.308;21.916;2023-04-06T11:15:33;160.40;;;83.30;;
55527;SDS011;52818;43.308;21.916;2023-04-06T11:17:30;94.30;;;52.90;;
55527;SDS011;52818;43.308;21.916;2023-04-06T11:19:31;73.00;;;44.70;;
55527;SDS011;52818;43.308;21.916;2023-04-06T11:21:32;24.90;;;16.70;;
55527;SDS011;52818;43.308;21.916;2023-04-06T11:23:30;21.30;;;15.00;;
55527;SDS011;52818;43.308;21.916;2023-04-06T11:25:30;25.70;;;17.60;;
55527;SDS011;52818;43.308;21.916;2023-04-06T11:27:30;28.70;;;20.10;;
55527;SDS011;52818;43.308;21.916;2023-04-06T11:29:30;25.90;;;19.50;;
55527;SDS011;52818;43.308;21.916;2023-04-06T11:31:31;25.50;;;18.70;;
55527;SDS011;52818;43.308;21.916;2023-04-06T11:33:34;30.00;;;21.50;;
55527;SDS011;52818;43.308;21.916;2023-04-06T11:35:31;19.40;;;14.20;;
55527;SDS011;52818;43.308;21.916;2023-04-06T11:37:31;23.20;;;16.70;;